createdAt,value
2017-10-07T00:00:53.690Z,0
2017-10-07T00:02:02.522Z,0
2017-10-07T00:03:11.355Z,0
2017-10-07T00:04:20.192Z,0
2017-10-07T00:05:29.014Z,0
2017-10-07T00:06:37.850Z,0
2017-10-07T00:07:46.674Z,0
2017-10-07T00:08:55.504Z,0
2017-10-07T00:10:04.334Z,0
2017-10-07T00:11:13.166Z,0
2017-10-07T00:12:21.996Z,0
2017-10-07T00:13:30.829Z,0
2017-10-07T00:14:39.656Z,0
2017-10-07T00:15:48.815Z,0
2017-10-07T00:16:57.650Z,0
2017-10-07T00:18:06.802Z,0
2017-10-07T00:19:15.631Z,0
2017-10-07T00:20:24.467Z,0
2017-10-07T00:21:33.296Z,0
2017-10-07T00:22:42.131Z,0
2017-10-07T00:23:50.962Z,0
2017-10-07T00:24:59.801Z,0
2017-10-07T00:26:08.626Z,0
2017-10-07T00:27:17.460Z,0
2017-10-07T00:28:26.290Z,0
2017-10-07T00:29:35.125Z,0
2017-10-07T00:30:43.960Z,0
2017-10-07T00:31:52.798Z,0
2017-10-07T00:33:01.957Z,0
2017-10-07T00:34:10.785Z,0
2017-10-07T00:35:19.619Z,0
2017-10-07T00:36:28.456Z,0
2017-10-07T00:37:37.289Z,0
2017-10-07T00:38:46.120Z,0
2017-10-07T00:39:55.276Z,0
2017-10-07T00:41:04.107Z,0
2017-10-07T00:42:12.938Z,0
2017-10-07T00:43:21.767Z,0
2017-10-07T00:44:30.600Z,0
2017-10-07T00:45:39.433Z,0
2017-10-07T00:46:48.262Z,0
2017-10-07T00:47:57.090Z,0
2017-10-07T00:49:05.928Z,0
2017-10-07T00:50:14.754Z,0
2017-10-07T00:51:23.593Z,0
2017-10-07T00:52:32.425Z,0
2017-10-07T00:53:41.583Z,0
2017-10-07T00:54:50.413Z,0
2017-10-07T00:55:59.244Z,0
2017-10-07T00:57:08.072Z,0
2017-10-07T00:58:16.906Z,0
2017-10-07T00:59:25.737Z,0
2017-10-07T01:00:34.566Z,0
2017-10-07T01:01:43.398Z,0
2017-10-07T01:02:52.230Z,0
2017-10-07T01:04:01.056Z,0
2017-10-07T01:05:09.888Z,0
2017-10-07T01:06:18.719Z,0
2017-10-07T01:07:27.550Z,0
2017-10-07T01:08:36.697Z,0
2017-10-07T01:09:45.535Z,0
2017-10-07T01:10:54.364Z,0
2017-10-07T01:12:03.201Z,0
2017-10-07T01:13:12.030Z,0
2017-10-07T01:14:20.859Z,0
2017-10-07T01:15:29.690Z,0
2017-10-07T01:16:38.529Z,0
2017-10-07T01:17:47.681Z,0
2017-10-07T01:18:56.512Z,0
2017-10-07T01:20:05.345Z,0
2017-10-07T01:21:14.173Z,0
2017-10-07T01:22:23.004Z,0
2017-10-07T01:23:31.836Z,0
2017-10-07T01:24:40.665Z,0
2017-10-07T01:25:49.498Z,0
2017-10-07T01:26:58.330Z,0
2017-10-07T01:28:07.176Z,0
2017-10-07T01:29:16.011Z,0
2017-10-07T01:30:24.840Z,0
2017-10-07T01:31:33.676Z,0
2017-10-07T01:32:42.506Z,0
2017-10-07T01:33:51.335Z,0
2017-10-07T01:35:00.168Z,0
2017-10-07T01:36:09.001Z,0
2017-10-07T01:37:17.838Z,0
2017-10-07T01:38:26.673Z,0
2017-10-07T01:39:35.508Z,0
2017-10-07T01:40:44.338Z,0
2017-10-07T01:41:53.186Z,0
2017-10-07T01:43:01.996Z,0
2017-10-07T01:44:10.832Z,0
2017-10-07T01:45:19.667Z,0
2017-10-07T01:46:28.494Z,0
2017-10-07T01:47:37.324Z,0
2017-10-07T01:48:46.159Z,0
2017-10-07T01:49:54.987Z,0
2017-10-07T01:51:03.823Z,0
2017-10-07T01:52:12.656Z,0
2017-10-07T01:53:21.810Z,0
2017-10-07T01:54:30.635Z,0
2017-10-07T01:55:39.478Z,0
2017-10-07T01:56:48.298Z,0
2017-10-07T01:57:57.137Z,0
2017-10-07T01:59:05.966Z,0
2017-10-07T02:00:14.799Z,0
2017-10-07T02:01:23.624Z,0
2017-10-07T02:02:32.459Z,0
2017-10-07T02:03:41.286Z,0
2017-10-07T02:04:50.124Z,0
2017-10-07T02:05:58.957Z,0
2017-10-07T02:07:07.791Z,0
2017-10-07T02:08:16.618Z,0
2017-10-07T02:09:25.452Z,0
2017-10-07T02:10:34.279Z,0
2017-10-07T02:11:43.116Z,0
2017-10-07T02:12:51.948Z,0
2017-10-07T02:14:00.777Z,0
2017-10-07T02:15:09.932Z,0
2017-10-07T02:16:18.764Z,0
2017-10-07T02:17:27.593Z,0
2017-10-07T02:18:36.425Z,0
2017-10-07T02:19:45.253Z,0
2017-10-07T02:20:54.081Z,0
2017-10-07T02:22:03.234Z,0
2017-10-07T02:23:12.073Z,0
2017-10-07T02:24:20.904Z,0
2017-10-07T02:25:29.737Z,0
2017-10-07T02:26:38.567Z,0
2017-10-07T02:27:47.397Z,0
2017-10-07T02:28:56.230Z,0
2017-10-07T02:30:05.400Z,0
2017-10-07T02:31:14.553Z,0
2017-10-07T02:32:23.381Z,0
2017-10-07T02:33:32.213Z,0
2017-10-07T02:34:41.372Z,0
2017-10-07T02:35:50.203Z,0
2017-10-07T02:36:59.036Z,0
2017-10-07T02:38:07.868Z,0
2017-10-07T02:39:16.696Z,0
2017-10-07T02:40:25.527Z,0
2017-10-07T02:41:34.360Z,0
2017-10-07T02:42:43.190Z,0
2017-10-07T02:43:52.020Z,0
2017-10-07T02:45:00.852Z,0
2017-10-07T02:46:09.682Z,0
2017-10-07T02:47:18.513Z,0
2017-10-07T02:48:27.349Z,0
2017-10-07T02:49:36.175Z,0
2017-10-07T02:50:45.011Z,0
2017-10-07T02:51:53.842Z,0
2017-10-07T02:53:02.676Z,0
2017-10-07T02:54:11.506Z,0
2017-10-07T02:55:20.343Z,0
2017-10-07T02:56:29.168Z,0
2017-10-07T02:57:38.002Z,0
2017-10-07T02:58:46.830Z,0
2017-10-07T02:59:55.670Z,0
2017-10-07T03:01:04.500Z,0
2017-10-07T03:02:13.337Z,0
2017-10-07T03:03:22.167Z,0
2017-10-07T03:04:30.998Z,0
2017-10-07T03:05:39.826Z,0
2017-10-07T03:06:48.661Z,0
2017-10-07T03:07:57.495Z,0
2017-10-07T03:09:06.324Z,0
2017-10-07T03:10:15.179Z,0
2017-10-07T03:11:23.982Z,0
2017-10-07T03:12:32.814Z,0
2017-10-07T03:13:41.647Z,0
2017-10-07T03:14:50.479Z,0
2017-10-07T03:15:59.309Z,0
2017-10-07T03:17:08.142Z,0
2017-10-07T03:18:17.309Z,0
2017-10-07T03:19:26.141Z,0
2017-10-07T03:20:34.972Z,0
2017-10-07T03:21:43.804Z,0
2017-10-07T03:22:52.959Z,0
2017-10-07T03:24:01.800Z,0
2017-10-07T03:25:10.628Z,0
2017-10-07T03:26:19.458Z,0
2017-10-07T03:27:28.291Z,0
2017-10-07T03:28:37.124Z,0
2017-10-07T03:29:45.961Z,0
2017-10-07T03:30:54.796Z,0
2017-10-07T03:32:03.629Z,0
2017-10-07T03:33:12.455Z,0
2017-10-07T03:34:21.287Z,0
2017-10-07T03:35:30.119Z,0
2017-10-07T03:36:38.950Z,0
2017-10-07T03:37:47.779Z,0
2017-10-07T03:38:56.609Z,0
2017-10-07T03:40:05.440Z,0
2017-10-07T03:41:14.275Z,0
2017-10-07T03:42:23.109Z,0
2017-10-07T03:43:31.938Z,0
2017-10-07T03:44:40.781Z,0
2017-10-07T03:45:49.603Z,0
2017-10-07T03:46:58.431Z,0
2017-10-07T03:48:07.267Z,0
2017-10-07T03:49:16.106Z,0
2017-10-07T03:50:24.937Z,0
2017-10-07T03:51:33.769Z,0
2017-10-07T03:52:42.602Z,0
2017-10-07T03:53:51.432Z,0
2017-10-07T03:55:00.261Z,0
2017-10-07T03:56:09.091Z,0
2017-10-07T03:57:17.922Z,0
2017-10-07T03:58:26.757Z,0
2017-10-07T03:59:35.619Z,0
2017-10-07T04:00:44.422Z,0
2017-10-07T04:01:53.254Z,0
2017-10-07T04:03:02.083Z,0
2017-10-07T04:04:10.915Z,0
2017-10-07T04:05:19.742Z,0
2017-10-07T04:06:28.577Z,0
2017-10-07T04:07:37.406Z,0
2017-10-07T04:08:46.237Z,0
2017-10-07T04:09:55.068Z,0
2017-10-07T04:11:03.897Z,0
2017-10-07T04:12:12.737Z,0
2017-10-07T04:13:21.890Z,0
2017-10-07T04:14:31.051Z,0
2017-10-07T04:15:39.875Z,0
2017-10-07T04:16:48.713Z,0
2017-10-07T04:17:57.545Z,0
2017-10-07T04:19:06.380Z,0
2017-10-07T04:20:15.211Z,0
2017-10-07T04:21:24.043Z,0
2017-10-07T04:22:32.875Z,0
2017-10-07T04:23:41.706Z,0
2017-10-07T04:24:50.537Z,0
2017-10-07T04:25:59.368Z,0
2017-10-07T04:27:08.197Z,0
2017-10-07T04:28:17.035Z,0
2017-10-07T04:29:25.864Z,0
2017-10-07T04:30:34.700Z,0
2017-10-07T04:31:43.527Z,0
2017-10-07T04:32:52.353Z,0
2017-10-07T04:34:01.187Z,0
2017-10-07T04:35:10.018Z,0
2017-10-07T04:36:18.853Z,0
2017-10-07T04:37:27.685Z,0
2017-10-07T04:38:36.515Z,0
2017-10-07T04:39:45.345Z,0
2017-10-07T04:40:54.178Z,0
2017-10-07T04:42:03.013Z,0
2017-10-07T04:43:11.840Z,0
2017-10-07T04:44:20.672Z,0
2017-10-07T04:45:29.498Z,0
2017-10-07T04:46:38.330Z,0
2017-10-07T04:47:47.165Z,0
2017-10-07T04:48:56.000Z,0
2017-10-07T04:50:04.831Z,0
2017-10-07T04:51:13.659Z,0
2017-10-07T04:52:22.496Z,0
2017-10-07T04:53:31.325Z,0
2017-10-07T04:54:40.156Z,0
2017-10-07T04:55:48.984Z,0
2017-10-07T04:56:57.818Z,0
2017-10-07T04:58:06.653Z,0
2017-10-07T04:59:15.480Z,0
2017-10-07T05:00:24.313Z,0
2017-10-07T05:01:33.143Z,0
2017-10-07T05:02:41.974Z,0
2017-10-07T05:03:50.809Z,0
2017-10-07T05:04:59.647Z,0
2017-10-07T05:06:08.471Z,0
2017-10-07T05:07:17.309Z,0
2017-10-07T05:08:26.133Z,0
2017-10-07T05:09:34.967Z,0
2017-10-07T05:10:43.802Z,0
2017-10-07T05:11:52.635Z,0
2017-10-07T05:13:01.787Z,0
2017-10-07T05:14:10.621Z,0
2017-10-07T05:15:19.449Z,0
2017-10-07T05:16:28.279Z,0
2017-10-07T05:17:37.432Z,0
2017-10-07T05:18:46.266Z,0
2017-10-07T05:19:55.092Z,0
2017-10-07T05:21:03.928Z,0
2017-10-07T05:22:12.760Z,0
2017-10-07T05:23:21.592Z,0
2017-10-07T05:24:30.425Z,0
2017-10-07T05:25:39.255Z,0
2017-10-07T05:26:48.086Z,0
2017-10-07T05:27:56.918Z,0
2017-10-07T05:29:05.748Z,0
2017-10-07T05:30:14.583Z,0
2017-10-07T05:31:23.421Z,0
2017-10-07T05:32:32.253Z,0
2017-10-07T05:33:41.082Z,0
2017-10-07T05:34:49.917Z,0
2017-10-07T05:35:58.749Z,0
2017-10-07T05:37:07.583Z,0
2017-10-07T05:38:16.411Z,0
2017-10-07T05:39:25.250Z,0
2017-10-07T05:40:34.079Z,0
2017-10-07T05:41:42.908Z,0
2017-10-07T05:42:51.737Z,5
2017-10-07T05:44:00.567Z,0
2017-10-07T05:45:09.401Z,5
2017-10-07T05:46:18.233Z,0
2017-10-07T05:47:27.068Z,5
2017-10-07T05:48:35.896Z,5
2017-10-07T05:49:44.726Z,0
2017-10-07T05:50:53.560Z,0
2017-10-07T05:52:02.392Z,0
2017-10-07T05:53:11.229Z,5
2017-10-07T05:54:20.054Z,5
2017-10-07T05:55:28.884Z,5
2017-10-07T05:56:37.718Z,5
2017-10-07T05:57:46.549Z,5
2017-10-07T05:58:55.385Z,5
2017-10-07T06:00:04.228Z,5
2017-10-07T06:01:13.056Z,5
2017-10-07T06:02:21.891Z,5
2017-10-07T06:03:30.719Z,10
2017-10-07T06:04:39.557Z,5
2017-10-07T06:05:48.383Z,5
2017-10-07T06:06:57.220Z,5
2017-10-07T06:08:06.051Z,5
2017-10-07T06:09:14.882Z,10
2017-10-07T06:10:23.716Z,10
2017-10-07T06:11:32.550Z,10
2017-10-07T06:12:41.382Z,15
2017-10-07T06:13:50.537Z,10
2017-10-07T06:14:59.364Z,10
2017-10-07T06:16:08.195Z,10
2017-10-07T06:17:17.027Z,10
2017-10-07T06:18:25.863Z,10
2017-10-07T06:19:34.693Z,10
2017-10-07T06:20:43.529Z,10
2017-10-07T06:21:52.355Z,15
2017-10-07T06:23:01.188Z,15
2017-10-07T06:24:10.021Z,15
2017-10-07T06:25:18.856Z,10
2017-10-07T06:26:27.689Z,15
2017-10-07T06:27:36.522Z,15
2017-10-07T06:28:45.355Z,15
2017-10-07T06:29:54.191Z,15
2017-10-07T06:31:03.024Z,20
2017-10-07T06:32:11.859Z,15
2017-10-07T06:33:20.684Z,20
2017-10-07T06:34:29.520Z,15
2017-10-07T06:35:38.350Z,15
2017-10-07T06:36:47.185Z,10
2017-10-07T06:37:56.018Z,15
2017-10-07T06:39:04.900Z,20
2017-10-07T06:40:13.731Z,20
2017-10-07T06:41:22.562Z,20
2017-10-07T06:42:31.397Z,20
2017-10-07T06:43:40.229Z,20
2017-10-07T06:44:49.063Z,15
2017-10-07T06:45:57.898Z,20
2017-10-07T06:47:06.727Z,15
2017-10-07T06:48:15.565Z,20
2017-10-07T06:49:24.393Z,20
2017-10-07T06:50:33.227Z,20
2017-10-07T06:51:42.063Z,15
2017-10-07T06:52:50.897Z,15
2017-10-07T06:53:59.730Z,15
2017-10-07T06:55:08.570Z,20
2017-10-07T06:56:17.395Z,20
2017-10-07T06:57:26.237Z,20
2017-10-07T06:58:35.058Z,15
2017-10-07T06:59:43.892Z,15
2017-10-07T07:00:53.043Z,15
2017-10-07T07:02:01.880Z,10
2017-10-07T07:03:10.708Z,10
2017-10-07T07:04:19.540Z,10
2017-10-07T07:05:28.370Z,10
2017-10-07T07:06:37.522Z,10
2017-10-07T07:07:46.362Z,10
2017-10-07T07:08:55.196Z,10
2017-10-07T07:10:04.024Z,15
2017-10-07T07:11:12.860Z,10
2017-10-07T07:12:21.691Z,10
2017-10-07T07:13:30.559Z,10
2017-10-07T07:14:39.364Z,10
2017-10-07T07:15:48.201Z,15
2017-10-07T07:16:57.029Z,10
2017-10-07T07:18:05.860Z,15
2017-10-07T07:19:14.697Z,15
2017-10-07T07:20:23.525Z,15
2017-10-07T07:21:32.679Z,15
2017-10-07T07:22:41.512Z,15
2017-10-07T07:23:50.343Z,20
2017-10-07T07:24:59.179Z,15
2017-10-07T07:26:08.011Z,20
2017-10-07T07:27:16.846Z,25
2017-10-07T07:28:25.671Z,25
2017-10-07T07:29:34.506Z,25
2017-10-07T07:30:43.334Z,25
2017-10-07T07:31:52.165Z,20
2017-10-07T07:33:00.996Z,15
2017-10-07T07:34:10.152Z,10
2017-10-07T07:35:19.314Z,10
2017-10-07T07:36:28.146Z,10
2017-10-07T07:37:36.980Z,10
2017-10-07T07:38:45.809Z,15
2017-10-07T07:39:54.639Z,20
2017-10-07T07:41:03.472Z,20
2017-10-07T07:42:12.309Z,20
2017-10-07T07:43:21.148Z,30
2017-10-07T07:44:29.974Z,35
2017-10-07T07:45:38.812Z,40
2017-10-07T07:46:47.643Z,35
2017-10-07T07:47:56.479Z,35
2017-10-07T07:49:05.312Z,45
2017-10-07T07:50:14.146Z,50
2017-10-07T07:51:22.974Z,50
2017-10-07T07:52:31.808Z,50
2017-10-07T07:53:40.637Z,55
2017-10-07T07:54:49.474Z,50
2017-10-07T07:55:58.299Z,45
2017-10-07T07:57:07.138Z,45
2017-10-07T07:58:15.967Z,50
2017-10-07T07:59:24.797Z,50
2017-10-07T08:00:33.630Z,50
2017-10-07T08:01:42.464Z,50
2017-10-07T08:02:51.298Z,50
2017-10-07T08:04:00.134Z,50
2017-10-07T08:05:09.293Z,50
2017-10-07T08:06:18.125Z,45
2017-10-07T08:07:26.960Z,50
2017-10-07T08:08:35.796Z,50
2017-10-07T08:09:44.629Z,40
2017-10-07T08:10:53.464Z,45
2017-10-07T08:12:02.294Z,40
2017-10-07T08:13:11.127Z,45
2017-10-07T08:14:19.961Z,30
2017-10-07T08:15:28.795Z,30
2017-10-07T08:16:37.627Z,40
2017-10-07T08:17:46.463Z,35
2017-10-07T08:18:55.294Z,40
2017-10-07T08:20:04.123Z,35
2017-10-07T08:21:12.957Z,20
2017-10-07T08:22:21.790Z,35
2017-10-07T08:23:30.616Z,45
2017-10-07T08:24:39.447Z,30
2017-10-07T08:25:48.278Z,35
2017-10-07T08:26:57.114Z,30
2017-10-07T08:28:05.949Z,30
2017-10-07T08:29:14.783Z,35
2017-10-07T08:30:23.613Z,20
2017-10-07T08:31:32.450Z,20
2017-10-07T08:32:41.603Z,15
2017-10-07T08:33:50.760Z,15
2017-10-07T08:34:59.596Z,20
2017-10-07T08:36:08.441Z,15
2017-10-07T08:37:17.260Z,15
2017-10-07T08:38:26.095Z,15
2017-10-07T08:39:34.926Z,25
2017-10-07T08:40:44.085Z,30
2017-10-07T08:41:52.914Z,25
2017-10-07T08:43:01.750Z,30
2017-10-07T08:44:10.580Z,25
2017-10-07T08:45:19.412Z,30
2017-10-07T08:46:28.244Z,40
2017-10-07T08:47:37.079Z,30
2017-10-07T08:48:45.912Z,25
2017-10-07T08:49:54.744Z,35
2017-10-07T08:51:03.571Z,50
2017-10-07T08:52:12.406Z,55
2017-10-07T08:53:21.245Z,50
2017-10-07T08:54:30.074Z,35
2017-10-07T08:55:38.911Z,45
2017-10-07T08:56:47.740Z,50
2017-10-07T08:57:56.576Z,55
2017-10-07T08:59:05.406Z,75
2017-10-07T09:00:14.245Z,80
2017-10-07T09:01:23.077Z,80
2017-10-07T09:02:31.914Z,75
2017-10-07T09:03:40.747Z,75
2017-10-07T09:04:49.578Z,60
2017-10-07T09:05:58.409Z,60
2017-10-07T09:07:07.242Z,60
2017-10-07T09:08:16.073Z,60
2017-10-07T09:09:25.230Z,60
2017-10-07T09:10:34.071Z,60
2017-10-07T09:11:42.901Z,55
2017-10-07T09:12:51.731Z,60
2017-10-07T09:14:00.567Z,65
2017-10-07T09:15:09.399Z,60
2017-10-07T09:16:18.227Z,60
2017-10-07T09:17:27.063Z,65
2017-10-07T09:18:35.896Z,75
2017-10-07T09:19:44.725Z,70
2017-10-07T09:20:53.560Z,80
2017-10-07T09:22:02.398Z,75
2017-10-07T09:23:11.228Z,75
2017-10-07T09:24:20.067Z,70
2017-10-07T09:25:28.896Z,70
2017-10-07T09:26:37.730Z,70
2017-10-07T09:27:46.564Z,70
2017-10-07T09:28:55.402Z,65
2017-10-07T09:30:04.235Z,50
2017-10-07T09:31:13.069Z,45
2017-10-07T09:32:21.903Z,55
2017-10-07T09:33:30.736Z,50
2017-10-07T09:34:39.572Z,50
2017-10-07T09:35:48.406Z,55
2017-10-07T09:36:57.236Z,55
2017-10-07T09:38:06.076Z,60
2017-10-07T09:39:14.911Z,55
2017-10-07T09:40:23.747Z,80
2017-10-07T09:41:32.577Z,60
2017-10-07T09:42:41.416Z,50
2017-10-07T09:43:50.244Z,60
2017-10-07T09:44:59.075Z,55
2017-10-07T09:46:07.911Z,55
2017-10-07T09:47:16.743Z,60
2017-10-07T09:48:25.581Z,60
2017-10-07T09:49:34.416Z,60
2017-10-07T09:50:43.248Z,70
2017-10-07T09:51:52.076Z,60
2017-10-07T09:53:00.915Z,80
2017-10-07T09:54:09.744Z,80
2017-10-07T09:55:18.585Z,75
2017-10-07T09:56:27.417Z,60
2017-10-07T09:57:36.252Z,65
2017-10-07T09:58:45.081Z,70
2017-10-07T09:59:53.919Z,60
2017-10-07T10:01:03.070Z,75
2017-10-07T10:02:11.909Z,75
2017-10-07T10:03:20.744Z,75
2017-10-07T10:04:29.897Z,65
2017-10-07T10:05:39.056Z,60
2017-10-07T10:06:47.898Z,60
2017-10-07T10:07:56.728Z,50
2017-10-07T10:09:05.566Z,35
2017-10-07T10:10:14.400Z,20
2017-10-07T10:11:23.234Z,20
2017-10-07T10:12:32.066Z,25
2017-10-07T10:13:40.900Z,35
2017-10-07T10:14:49.740Z,45
2017-10-07T10:15:58.578Z,70
2017-10-07T10:17:07.413Z,80
2017-10-07T10:18:16.248Z,95
2017-10-07T10:19:25.085Z,95
2017-10-07T10:20:34.241Z,105
2017-10-07T10:21:43.403Z,90
2017-10-07T10:22:52.235Z,75
2017-10-07T10:24:01.073Z,70
2017-10-07T10:25:09.908Z,55
2017-10-07T10:26:18.742Z,45
2017-10-07T10:27:27.578Z,45
2017-10-07T10:28:36.418Z,45
2017-10-07T10:29:45.240Z,55
2017-10-07T10:30:54.075Z,55
2017-10-07T10:32:02.909Z,60
2017-10-07T10:33:11.740Z,70
2017-10-07T10:34:20.576Z,60
2017-10-07T10:35:29.417Z,65
2017-10-07T10:36:38.247Z,50
2017-10-07T10:37:47.083Z,40
2017-10-07T10:38:56.239Z,35
2017-10-07T10:40:05.077Z,40
2017-10-07T10:41:13.912Z,30
2017-10-07T10:42:22.745Z,20
2017-10-07T10:43:31.578Z,25
2017-10-07T10:44:40.417Z,25
2017-10-07T10:45:49.245Z,25
2017-10-07T10:46:58.081Z,25
2017-10-07T10:48:06.921Z,20
2017-10-07T10:49:15.754Z,20
2017-10-07T10:50:24.595Z,15
2017-10-07T10:51:33.426Z,20
2017-10-07T10:52:42.263Z,20
2017-10-07T10:53:51.095Z,20
2017-10-07T10:54:59.930Z,25
2017-10-07T10:56:08.760Z,25
2017-10-07T10:57:17.598Z,20
2017-10-07T10:58:26.434Z,20
2017-10-07T10:59:35.264Z,20
2017-10-07T11:00:44.097Z,10
2017-10-07T11:01:52.925Z,10
2017-10-07T11:03:01.765Z,10
2017-10-07T11:04:10.921Z,15
2017-10-07T11:05:19.753Z,20
2017-10-07T11:06:28.587Z,30
2017-10-07T11:07:37.422Z,30
2017-10-07T11:08:46.252Z,30
2017-10-07T11:09:55.085Z,10
2017-10-07T11:11:03.922Z,5
2017-10-07T11:12:12.753Z,0
2017-10-07T11:13:21.583Z,0
2017-10-07T11:14:30.419Z,5
2017-10-07T11:15:39.253Z,15
2017-10-07T11:16:48.087Z,15
2017-10-07T11:17:56.918Z,15
2017-10-07T11:19:05.756Z,20
2017-10-07T11:20:14.587Z,25
2017-10-07T11:21:23.420Z,30
2017-10-07T11:22:32.253Z,35
2017-10-07T11:23:41.086Z,40
2017-10-07T11:24:49.917Z,45
2017-10-07T11:25:58.753Z,55
2017-10-07T11:27:07.587Z,55
2017-10-07T11:28:16.418Z,60
2017-10-07T11:29:25.247Z,60
2017-10-07T11:30:34.076Z,60
2017-10-07T11:31:42.915Z,60
2017-10-07T11:32:51.750Z,60
2017-10-07T11:34:00.577Z,55
2017-10-07T11:35:09.415Z,55
2017-10-07T11:36:18.248Z,50
2017-10-07T11:37:27.080Z,55
2017-10-07T11:38:35.917Z,60
2017-10-07T11:39:44.753Z,70
2017-10-07T11:40:53.580Z,75
2017-10-07T11:42:02.411Z,70
2017-10-07T11:43:11.246Z,70
2017-10-07T11:44:20.083Z,70
2017-10-07T11:45:28.921Z,70
2017-10-07T11:46:37.752Z,70
2017-10-07T11:47:46.584Z,75
2017-10-07T11:48:55.416Z,70
2017-10-07T11:50:04.252Z,80
2017-10-07T11:51:13.081Z,65
2017-10-07T11:52:21.916Z,60
2017-10-07T11:53:30.755Z,50
2017-10-07T11:54:39.586Z,50
2017-10-07T11:55:48.417Z,50
2017-10-07T11:56:57.249Z,55
2017-10-07T11:58:06.087Z,55
2017-10-07T11:59:14.923Z,60
2017-10-07T12:00:23.763Z,55
2017-10-07T12:01:32.592Z,55
2017-10-07T12:02:41.421Z,60
2017-10-07T12:03:50.256Z,50
2017-10-07T12:04:59.091Z,55
2017-10-07T12:06:07.934Z,55
2017-10-07T12:07:16.766Z,55
2017-10-07T12:08:25.922Z,55
2017-10-07T12:09:34.751Z,55
2017-10-07T12:10:43.590Z,60
2017-10-07T12:11:52.429Z,55
2017-10-07T12:13:01.259Z,55
2017-10-07T12:14:10.092Z,55
2017-10-07T12:15:18.921Z,65
2017-10-07T12:16:27.756Z,75
2017-10-07T12:17:36.593Z,75
2017-10-07T12:18:45.428Z,75
2017-10-07T12:19:54.258Z,65
2017-10-07T12:21:03.091Z,60
2017-10-07T12:22:11.927Z,55
2017-10-07T12:23:20.760Z,55
2017-10-07T12:24:29.595Z,55
2017-10-07T12:25:38.434Z,55
2017-10-07T12:26:47.267Z,50
2017-10-07T12:27:56.104Z,45
2017-10-07T12:29:04.943Z,45
2017-10-07T12:30:13.778Z,60
2017-10-07T12:31:22.610Z,55
2017-10-07T12:32:31.445Z,60
2017-10-07T12:33:40.279Z,65
2017-10-07T12:34:49.118Z,65
2017-10-07T12:35:57.951Z,50
2017-10-07T12:37:06.782Z,25
2017-10-07T12:38:15.619Z,20
2017-10-07T12:39:24.459Z,30
2017-10-07T12:40:33.297Z,45
2017-10-07T12:41:42.131Z,40
2017-10-07T12:42:50.963Z,30
2017-10-07T12:43:59.788Z,25
2017-10-07T12:45:08.630Z,10
2017-10-07T12:46:17.462Z,10
2017-10-07T12:47:26.296Z,5
2017-10-07T12:48:35.131Z,5
2017-10-07T12:49:43.965Z,10
2017-10-07T12:50:52.801Z,10
2017-10-07T12:52:01.634Z,10
2017-10-07T12:53:10.463Z,25
2017-10-07T12:54:19.298Z,20
2017-10-07T12:55:28.135Z,30
2017-10-07T12:56:36.964Z,30
2017-10-07T12:57:45.798Z,40
2017-10-07T12:58:54.642Z,40
2017-10-07T13:00:03.800Z,45
2017-10-07T13:01:12.632Z,40
2017-10-07T13:02:21.473Z,35
2017-10-07T13:03:30.305Z,35
2017-10-07T13:04:39.141Z,30
2017-10-07T13:05:47.973Z,35
2017-10-07T13:06:56.802Z,45
2017-10-07T13:08:05.638Z,45
2017-10-07T13:09:14.473Z,45
2017-10-07T13:10:23.306Z,40
2017-10-07T13:11:32.143Z,40
2017-10-07T13:12:40.973Z,45
2017-10-07T13:13:49.802Z,40
2017-10-07T13:14:58.644Z,35
2017-10-07T13:16:07.476Z,25
2017-10-07T13:17:16.305Z,20
2017-10-07T13:18:25.142Z,25
2017-10-07T13:19:33.974Z,20
2017-10-07T13:20:42.812Z,20
2017-10-07T13:21:51.646Z,20
2017-10-07T13:23:00.480Z,15
2017-10-07T13:24:09.642Z,10
2017-10-07T13:25:18.478Z,10
2017-10-07T13:26:27.309Z,10
2017-10-07T13:27:36.144Z,10
2017-10-07T13:28:44.976Z,15
2017-10-07T13:29:53.808Z,20
2017-10-07T13:31:02.642Z,25
2017-10-07T13:32:11.800Z,20
2017-10-07T13:33:20.634Z,15
2017-10-07T13:34:29.464Z,20
2017-10-07T13:35:38.299Z,25
2017-10-07T13:36:47.135Z,30
2017-10-07T13:37:55.971Z,35
2017-10-07T13:39:04.800Z,35
2017-10-07T13:40:13.636Z,35
2017-10-07T13:41:22.471Z,30
2017-10-07T13:42:31.305Z,30
2017-10-07T13:43:40.140Z,30
2017-10-07T13:44:48.973Z,30
2017-10-07T13:45:57.810Z,35
2017-10-07T13:47:06.648Z,30
2017-10-07T13:48:15.481Z,30
2017-10-07T13:49:24.316Z,30
2017-10-07T13:50:33.149Z,30
2017-10-07T13:51:41.981Z,25
2017-10-07T13:52:51.140Z,25
2017-10-07T13:53:59.978Z,25
2017-10-07T13:55:08.810Z,25
2017-10-07T13:56:17.645Z,25
2017-10-07T13:57:26.484Z,20
2017-10-07T13:58:35.316Z,15
2017-10-07T13:59:44.152Z,20
2017-10-07T14:00:52.986Z,20
2017-10-07T14:02:01.819Z,20
2017-10-07T14:03:10.649Z,20
2017-10-07T14:04:19.488Z,20
2017-10-07T14:05:28.322Z,20
2017-10-07T14:06:37.154Z,20
2017-10-07T14:07:45.985Z,20
2017-10-07T14:08:54.815Z,15
2017-10-07T14:10:03.652Z,15
2017-10-07T14:11:12.487Z,15
2017-10-07T14:12:21.317Z,20
2017-10-07T14:13:30.472Z,20
2017-10-07T14:14:39.306Z,20
2017-10-07T14:15:48.141Z,20
2017-10-07T14:16:56.969Z,20
2017-10-07T14:18:05.808Z,15
2017-10-07T14:19:14.635Z,15
2017-10-07T14:20:23.471Z,10
2017-10-07T14:21:32.311Z,5
2017-10-07T14:22:41.144Z,5
2017-10-07T14:23:49.976Z,10
2017-10-07T14:24:58.811Z,10
2017-10-07T14:26:07.644Z,15
2017-10-07T14:27:16.474Z,15
2017-10-07T14:28:25.310Z,15
2017-10-07T14:29:34.145Z,15
2017-10-07T14:30:42.974Z,15
2017-10-07T14:31:51.809Z,15
2017-10-07T14:33:00.642Z,15
2017-10-07T14:34:09.476Z,15
2017-10-07T14:35:18.330Z,15
2017-10-07T14:36:27.138Z,15
2017-10-07T14:37:35.968Z,15
2017-10-07T14:38:44.801Z,15
2017-10-07T14:39:53.636Z,15
2017-10-07T14:41:02.472Z,15
2017-10-07T14:42:11.306Z,15
2017-10-07T14:43:20.139Z,10
2017-10-07T14:44:28.975Z,10
2017-10-07T14:45:37.808Z,10
2017-10-07T14:46:46.640Z,5
2017-10-07T14:47:55.473Z,10
2017-10-07T14:49:04.305Z,10
2017-10-07T14:50:13.135Z,10
2017-10-07T14:51:21.970Z,10
2017-10-07T14:52:30.804Z,10
2017-10-07T14:53:39.639Z,10
2017-10-07T14:54:48.470Z,10
2017-10-07T14:55:57.301Z,10
2017-10-07T14:57:06.136Z,10
2017-10-07T14:58:14.969Z,10
2017-10-07T14:59:24.474Z,10
2017-10-07T15:00:33.278Z,15
2017-10-07T15:01:42.114Z,10
2017-10-07T15:02:50.942Z,10
2017-10-07T15:04:00.102Z,10
2017-10-07T15:05:08.940Z,10
2017-10-07T15:06:17.777Z,10
2017-10-07T15:07:26.612Z,10
2017-10-07T15:08:35.442Z,5
2017-10-07T15:09:44.279Z,5
2017-10-07T15:10:53.105Z,5
2017-10-07T15:12:02.263Z,5
2017-10-07T15:13:11.097Z,5
2017-10-07T15:14:19.928Z,5
2017-10-07T15:15:28.761Z,5
2017-10-07T15:16:37.592Z,5
2017-10-07T15:17:46.425Z,5
2017-10-07T15:18:55.256Z,5
2017-10-07T15:20:04.092Z,5
2017-10-07T15:21:12.918Z,5
2017-10-07T15:22:21.748Z,5
2017-10-07T15:23:30.581Z,5
2017-10-07T15:24:39.738Z,5
2017-10-07T15:25:48.575Z,5
2017-10-07T15:26:57.405Z,5
2017-10-07T15:28:06.239Z,5
2017-10-07T15:29:15.069Z,5
2017-10-07T15:30:23.915Z,5
2017-10-07T15:31:32.747Z,5
2017-10-07T15:32:41.578Z,5
2017-10-07T15:33:50.417Z,5
2017-10-07T15:34:59.246Z,5
2017-10-07T15:36:08.085Z,5
2017-10-07T15:37:16.917Z,5
2017-10-07T15:38:25.749Z,5
2017-10-07T15:39:34.583Z,5
2017-10-07T15:40:43.415Z,0
2017-10-07T15:41:52.244Z,0
2017-10-07T15:43:01.073Z,0
2017-10-07T15:44:09.911Z,0
2017-10-07T15:45:18.744Z,0
2017-10-07T15:46:27.577Z,0
2017-10-07T15:47:36.417Z,0
2017-10-07T15:48:45.245Z,0
2017-10-07T15:49:54.075Z,0
2017-10-07T15:51:02.914Z,0
2017-10-07T15:52:11.750Z,0
2017-10-07T15:53:20.582Z,0
2017-10-07T15:54:29.414Z,0
2017-10-07T15:55:38.243Z,0
2017-10-07T15:56:47.076Z,0
2017-10-07T15:57:55.911Z,0
2017-10-07T15:59:04.740Z,0
2017-10-07T16:00:13.570Z,0
2017-10-07T16:01:22.405Z,0
2017-10-07T16:02:31.236Z,0
2017-10-07T16:03:40.069Z,0
2017-10-07T16:04:48.908Z,0
2017-10-07T16:05:57.736Z,0
2017-10-07T16:07:06.589Z,0
2017-10-07T16:08:15.400Z,0
2017-10-07T16:09:24.236Z,0
2017-10-07T16:10:33.066Z,0
2017-10-07T16:11:41.913Z,0
2017-10-07T16:12:50.739Z,0
2017-10-07T16:13:59.573Z,0
2017-10-07T16:15:08.405Z,0
2017-10-07T16:16:17.235Z,0
2017-10-07T16:17:26.063Z,0
2017-10-07T16:18:34.898Z,0
2017-10-07T16:19:43.732Z,0
2017-10-07T16:20:52.564Z,0
2017-10-07T16:22:01.395Z,0
2017-10-07T16:23:10.225Z,0
2017-10-07T16:24:19.055Z,0
2017-10-07T16:25:28.212Z,0
2017-10-07T16:26:37.046Z,0
2017-10-07T16:27:45.876Z,0
2017-10-07T16:28:54.705Z,0
2017-10-07T16:30:03.541Z,0
2017-10-07T16:31:12.374Z,0
2017-10-07T16:32:21.205Z,0
2017-10-07T16:33:30.044Z,0
2017-10-07T16:34:38.872Z,0
2017-10-07T16:35:47.700Z,0
2017-10-07T16:36:56.856Z,0
2017-10-07T16:38:05.690Z,0
2017-10-07T16:39:14.527Z,0